Time;durP1;ratioP1;P1;durP2;ratioP2;P2;SDS_P1;SDS_P2;PMS_P1;PMS_P2;Temp;Humidity;BMP_temperature;BMP_pressure;BME280_temperature;BME280_humidity;BME280_pressure;Samples;Min_cycle;Max_cycle;Signal;HPM_P1;HPM_P2
2024/02/07 00:01:24;;;;;;;10.77;7.10;;;;;9.20;98091.00;;;;5051869;28;20123;-63
2024/02/07 00:03:51;;;;;;;14.57;7.03;;;;;9.20;98084.00;;;;5051486;28;20504;-63
2024/02/07 00:06:18;;;;;;;13.80;6.90;;;;;9.20;98103.00;;;;5051850;28;20067;-64
2024/02/07 00:08:45;;;;;;;10.80;7.38;;;;;9.20;98096.00;;;;5050643;28;20095;-63
2024/02/07 00:11:11;;;;;;;9.75;6.72;;;;;9.30;98093.00;;;;5051869;28;20128;-64
2024/02/07 00:13:38;;;;;;;12.20;6.78;;;;;9.30;98094.00;;;;5051001;28;20552;-64
2024/02/07 00:16:05;;;;;;;9.85;6.68;;;;;9.30;98090.00;;;;5051891;28;20052;-63
2024/02/07 00:18:32;;;;;;;9.88;7.60;;;;;9.30;98090.00;;;;5051868;28;20444;-64
2024/02/07 00:20:58;;;;;;;15.00;6.70;;;;;9.30;98093.00;;;;5051521;28;20573;-64
2024/02/07 00:23:25;;;;;;;15.10;7.40;;;;;9.20;98084.00;;;;5051231;28;20045;-64
2024/02/07 00:25:52;;;;;;;9.98;6.53;;;;;9.30;98071.00;;;;5050372;28;20051;-63
2024/02/07 00:28:19;;;;;;;11.85;6.35;;;;;9.30;98076.00;;;;5051802;28;20053;-64
2024/02/07 00:30:46;;;;;;;10.40;6.78;;;;;9.20;98059.00;;;;5051597;28;20084;-64
2024/02/07 00:33:13;;;;;;;12.63;7.03;;;;;9.20;98058.00;;;;5051632;28;20072;-64
2024/02/07 00:35:39;;;;;;;17.48;8.20;;;;;9.20;98061.00;;;;5050998;28;20068;-65
2024/02/07 00:38:06;;;;;;;12.13;7.55;;;;;9.30;98043.00;;;;5051649;28;20041;-65
2024/02/07 00:40:33;;;;;;;9.63;7.50;;;;;9.30;98034.00;;;;5051538;28;20080;-65
2024/02/07 00:43:00;;;;;;;10.30;6.70;;;;;9.30;98055.00;;;;5051639;28;20383;-65
2024/02/07 00:45:29;;;;;;;12.77;7.15;;;;;9.20;98048.00;;;;5050913;28;20048;-65
2024/02/07 00:47:56;;;;;;;13.88;7.90;;;;;9.30;98032.00;;;;5051475;28;20041;-65
2024/02/07 00:50:22;;;;;;;12.18;7.15;;;;;9.30;98034.00;;;;5051714;28;20494;-65
2024/02/07 00:52:49;;;;;;;10.93;6.78;;;;;9.30;98045.00;;;;5055163;28;20175;-64
2024/02/07 00:55:16;;;;;;;11.23;6.07;;;;;9.30;98032.00;;;;5054452;28;20045;-65
2024/02/07 00:57:42;;;;;;;9.48;6.63;;;;;9.30;98034.00;;;;5055220;28;20045;-65
2024/02/07 01:00:14;;;;;;;13.20;7.32;;;;;9.30;98035.00;;;;5055001;28;20449;-65
2024/02/07 01:02:41;;;;;;;14.32;7.47;;;;;9.40;98024.00;;;;5054995;28;20043;-65
2024/02/07 01:05:09;;;;;;;11.02;7.43;;;;;9.30;98018.00;;;;5054332;28;20413;-63
2024/02/07 01:07:36;;;;;;;15.07;7.47;;;;;9.40;98034.00;;;;5054773;28;20449;-66
2024/02/07 01:10:04;;;;;;;12.05;6.53;;;;;9.40;98026.00;;;;5053584;28;20504;-63
2024/02/07 01:12:32;;;;;;;14.25;7.13;;;;;9.40;98051.00;;;;5054688;28;20434;-63
2024/02/07 01:14:59;;;;;;;13.27;7.70;;;;;9.40;98025.00;;;;5052800;28;20053;-64
2024/02/07 01:17:25;;;;;;;13.93;6.95;;;;;9.30;98013.00;;;;5054720;28;20048;-64
2024/02/07 01:19:52;;;;;;;11.73;7.10;;;;;9.30;98013.00;;;;5054740;28;20123;-63
2024/02/07 01:22:19;;;;;;;11.07;6.43;;;;;9.30;98003.00;;;;5054425;28;20410;-64
2024/02/07 01:24:46;;;;;;;11.15;6.43;;;;;9.30;98007.00;;;;5054064;28;20432;-63
2024/02/07 01:27:14;;;;;;;12.30;6.88;;;;;9.40;98000.00;;;;5054630;28;20049;-64
2024/02/07 01:29:41;;;;;;;13.52;7.00;;;;;9.40;98008.00;;;;5054756;28;20045;-65
2024/02/07 01:32:08;;;;;;;12.68;6.70;;;;;9.40;98006.00;;;;5054631;28;20045;-66
2024/02/07 01:34:35;;;;;;;10.43;6.30;;;;;9.40;97987.00;;;;5053969;28;20045;-64
2024/02/07 01:37:02;;;;;;;9.75;7.07;;;;;9.40;97982.00;;;;5054652;28;20136;-65
2024/02/07 01:39:29;;;;;;;10.48;6.40;;;;;9.40;97990.00;;;;5054539;28;20041;-63
2024/02/07 01:41:58;;;;;;;11.18;7.10;;;;;9.40;97990.00;;;;5054774;28;20080;-65
2024/02/07 01:44:28;;;;;;;12.60;6.20;;;;;9.40;97996.00;;;;5053770;28;20041;-63
2024/02/07 01:47:13;;;;;;;12.10;6.65;;;;;9.50;97993.00;;;;5054334;28;20128;-63
2024/02/07 01:49:45;;;;;;;12.27;7.00;;;;;9.50;97986.00;;;;5054345;28;20045;-63
2024/02/07 01:52:14;;;;;;;10.25;6.75;;;;;9.50;97979.00;;;;5054161;28;20041;-62
2024/02/07 01:54:41;;;;;;;10.88;6.47;;;;;9.60;97979.00;;;;5053545;28;20049;-64
2024/02/07 01:57:08;;;;;;;15.63;6.78;;;;;9.50;97981.00;;;;5054003;28;20132;-63
2024/02/07 01:59:39;;;;;;;12.45;6.68;;;;;9.50;97964.00;;;;5054273;28;20548;-63
2024/02/07 02:02:07;;;;;;;15.40;6.60;;;;;9.60;97966.00;;;;5051646;28;20053;-63
2024/02/07 02:04:34;;;;;;;13.00;6.53;;;;;9.60;97970.00;;;;5053248;28;20045;-62
2024/02/07 02:07:01;;;;;;;12.85;6.85;;;;;9.60;97962.00;;;;5053895;28;20045;-62
2024/02/07 02:09:28;;;;;;;11.65;6.53;;;;;9.60;97969.00;;;;5054014;28;20481;-62
2024/02/07 02:11:56;;;;;;;12.98;7.35;;;;;9.60;97972.00;;;;5053562;28;20124;-63
2024/02/07 02:14:24;;;;;;;11.98;6.15;;;;;9.50;97960.00;;;;5053021;28;20052;-65
2024/02/07 02:16:51;;;;;;;12.77;6.78;;;;;9.60;97953.00;;;;5053541;28;20102;-62
2024/02/07 02:19:19;;;;;;;11.60;6.53;;;;;9.60;97970.00;;;;5053480;28;20045;-63
2024/02/07 02:22:10;;;;;;;12.25;6.55;;;;;9.60;97950.00;;;;5053227;28;20048;-62
2024/02/07 02:25:15;;;;;;;10.88;6.47;;;;;9.60;97961.00;;;;5052913;28;20037;-64
2024/02/07 02:27:57;;;;;;;14.90;6.60;;;;;9.60;97944.00;;;;5053291;28;20095;-64
2024/02/07 02:30:40;;;;;;;11.88;6.70;;;;;9.50;97935.00;;;;5053393;28;20068;-63
2024/02/07 02:33:12;;;;;;;11.57;6.53;;;;;9.50;97925.00;;;;5053294;28;20045;-65
2024/02/07 02:35:40;;;;;;;14.25;6.68;;;;;9.50;97933.00;;;;5052701;28;20436;-64
2024/02/07 02:38:07;;;;;;;12.68;6.82;;;;;9.50;97937.00;;;;5053204;28;20053;-64
2024/02/07 02:40:33;;;;;;;13.18;6.60;;;;;9.50;97947.00;;;;5053228;28;20045;-64
2024/02/07 02:43:00;;;;;;;12.55;7.45;;;;;9.50;97919.00;;;;5051797;28;20040;-64
2024/02/07 02:45:27;;;;;;;14.45;7.43;;;;;9.50;97932.00;;;;5052447;28;20102;-64
2024/02/07 02:47:54;;;;;;;12.93;7.18;;;;;9.50;97918.00;;;;5053127;28;20133;-63
2024/02/07 02:50:25;;;;;;;14.00;6.68;;;;;9.40;97927.00;;;;5052900;28;20435;-62
2024/02/07 02:52:52;;;;;;;12.73;7.03;;;;;9.40;97922.00;;;;5052878;28;20048;-62
2024/02/07 02:55:19;;;;;;;12.23;8.05;;;;;9.40;97917.00;;;;5052525;28;20037;-63
2024/02/07 02:57:47;;;;;;;12.40;7.85;;;;;9.40;97901.00;;;;5051638;28;20045;-63
2024/02/07 03:00:14;;;;;;;9.32;6.57;;;;;9.40;97906.00;;;;5051294;28;20045;-62
2024/02/07 03:02:43;;;;;;;11.77;6.75;;;;;9.40;97896.00;;;;5052580;28;20040;-63
2024/02/07 03:08:05;;;;;;;13.57;7.25;;;;;9.40;97902.00;;;;5052587;28;20128;-64
2024/02/07 03:10:34;;;;;;;13.50;6.88;;;;;9.40;97891.00;;;;5052513;28;20052;-64
2024/02/07 03:13:01;;;;;;;10.90;6.82;;;;;9.50;97890.00;;;;5052481;28;20045;-63
2024/02/07 03:15:28;;;;;;;13.45;7.07;;;;;9.50;97889.00;;;;5051885;28;20092;-65
2024/02/07 03:17:56;;;;;;;16.08;7.65;;;;;9.50;97894.00;;;;5052467;28;20053;-63
2024/02/07 03:20:23;;;;;;;14.23;7.30;;;;;9.50;97898.00;;;;5051226;28;20041;-63
2024/02/07 03:22:51;;;;;;;13.15;7.63;;;;;9.50;97898.00;;;;5052328;28;20409;-64
2024/02/07 03:25:18;;;;;;;14.35;8.05;;;;;9.50;97884.00;;;;5051756;28;20052;-64
2024/02/07 03:27:44;;;;;;;12.48;7.03;;;;;9.50;97862.00;;;;5052248;28;20044;-64
2024/02/07 03:30:15;;;;;;;13.25;7.90;;;;;9.50;97874.00;;;;5050981;28;20048;-64
2024/02/07 03:32:42;;;;;;;13.05;7.50;;;;;9.40;97887.00;;;;5052215;28;20049;-63
2024/02/07 03:35:09;;;;;;;13.70;7.53;;;;;9.40;97869.00;;;;5050438;28;20061;-63
2024/02/07 03:37:38;;;;;;;10.52;7.82;;;;;9.50;97883.00;;;;5052263;28;20037;-64
2024/02/07 03:40:13;;;;;;;16.55;7.80;;;;;9.50;97876.00;;;;5052115;28;20041;-63
2024/02/07 03:42:41;;;;;;;13.57;7.40;;;;;9.40;97863.00;;;;5052075;28;20049;-63
2024/02/07 03:45:09;;;;;;;14.38;7.80;;;;;9.40;97845.00;;;;5051446;28;20045;-63
2024/02/07 03:47:39;;;;;;;14.57;8.25;;;;;9.40;97843.00;;;;5051985;28;20051;-63
2024/02/07 03:50:10;;;;;;;13.60;8.00;;;;;9.40;97842.00;;;;5051941;28;20064;-64
2024/02/07 03:52:45;;;;;;;13.85;8.00;;;;;9.50;97834.00;;;;5050965;28;20065;-64
2024/02/07 03:55:12;;;;;;;15.65;7.57;;;;;9.40;97814.00;;;;5051478;28;20048;-62
2024/02/07 03:57:43;;;;;;;13.82;7.32;;;;;9.40;97820.00;;;;5052317;28;20083;-62
2024/02/07 04:00:13;;;;;;;12.90;7.55;;;;;9.50;97813.00;;;;5052563;28;20073;-61
2024/02/07 04:02:41;;;;;;;12.57;7.32;;;;;9.50;97812.00;;;;5050913;28;20132;-63
2024/02/07 04:05:08;;;;;;;10.98;7.15;;;;;9.50;97818.00;;;;5052014;28;20655;-63
2024/02/07 04:07:35;;;;;;;14.32;7.47;;;;;9.50;97816.00;;;;5052651;28;20486;-64
2024/02/07 04:10:03;;;;;;;11.43;7.15;;;;;9.50;97816.00;;;;5053003;28;20412;-62
2024/02/07 05:15:38;;;;;;;13.43;7.78;;;;;9.60;97729.00;;;;5055206;28;20048;-63
2024/02/07 05:18:04;;;;;;;11.05;7.15;;;;;9.60;97729.00;;;;5055993;28;20049;-63
2024/02/07 05:20:31;;;;;;;13.07;7.15;;;;;9.60;97724.00;;;;5055059;28;20498;-63
2024/02/07 05:22:58;;;;;;;13.20;7.72;;;;;9.60;97736.00;;;;5054910;28;20048;-61
2024/02/07 05:25:25;;;;;;;13.90;8.75;;;;;9.60;97710.00;;;;5054826;28;20045;-63
2024/02/07 05:27:51;;;;;;;12.65;7.88;;;;;9.60;97717.00;;;;5057171;28;20041;-63
2024/02/07 05:30:18;;;;;;;14.98;7.63;;;;;9.60;97704.00;;;;5055535;28;20504;-63
2024/02/07 05:32:45;;;;;;;16.05;8.52;;;;;9.60;97709.00;;;;5054493;28;20669;-63
2024/02/07 05:35:12;;;;;;;14.35;7.68;;;;;9.60;97712.00;;;;5055144;28;20044;-63
2024/02/07 05:37:38;;;;;;;12.85;8.07;;;;;9.60;97715.00;;;;5054571;28;20045;-62
2024/02/07 05:40:06;;;;;;;13.25;8.35;;;;;9.50;97713.00;;;;5055472;28;20040;-62
2024/02/07 05:42:32;;;;;;;14.80;7.78;;;;;9.60;97712.00;;;;5054850;28;20041;-62
2024/02/07 05:44:59;;;;;;;16.20;7.97;;;;;9.60;97702.00;;;;5054444;28;20441;-63
2024/02/07 05:47:25;;;;;;;12.38;7.80;;;;;9.60;97724.00;;;;5053650;28;20128;-63
2024/02/07 05:49:52;;;;;;;11.85;7.32;;;;;9.60;97709.00;;;;5054221;28;20500;-64
2024/02/07 05:52:20;;;;;;;13.57;7.45;;;;;9.60;97700.00;;;;5054670;28;20060;-64
2024/02/07 05:54:49;;;;;;;13.65;7.22;;;;;9.50;97707.00;;;;5052936;28;20045;-64
2024/02/07 05:57:16;;;;;;;11.80;7.30;;;;;9.50;97695.00;;;;5054483;28;20048;-64
2024/02/07 05:59:43;;;;;;;12.45;6.78;;;;;9.50;97685.00;;;;5053792;28;20048;-63
2024/02/07 06:02:09;;;;;;;13.35;7.22;;;;;9.50;97698.00;;;;5054984;28;20037;-63
2024/02/07 06:04:36;;;;;;;12.05;6.55;;;;;9.50;97694.00;;;;5054180;28;20041;-63
2024/02/07 06:07:03;;;;;;;9.18;5.95;;;;;9.60;97699.00;;;;5054512;28;20123;-63
2024/02/07 06:09:30;;;;;;;11.75;6.43;;;;;9.50;97690.00;;;;5054179;28;20052;-64
2024/02/07 06:11:56;;;;;;;9.98;6.68;;;;;9.50;97671.00;;;;5053801;28;20041;-64
2024/02/07 06:14:23;;;;;;;12.45;7.03;;;;;9.50;97675.00;;;;5052994;28;20067;-63
2024/02/07 06:16:49;;;;;;;9.85;7.05;;;;;9.50;97679.00;;;;5055596;28;20128;-63
2024/02/07 06:19:17;;;;;;;14.45;7.05;;;;;9.50;97684.00;;;;5056034;28;20080;-64
2024/02/07 06:21:45;;;;;;;12.93;6.82;;;;;9.50;97691.00;;;;5054757;28;20494;-65
2024/02/07 06:24:11;;;;;;;14.90;7.10;;;;;9.50;97684.00;;;;5053675;28;20108;-64
2024/02/07 06:26:38;;;;;;;12.05;7.30;;;;;9.50;97694.00;;;;5053618;28;20076;-62
2024/02/07 06:29:04;;;;;;;9.70;7.45;;;;;9.50;97675.00;;;;5053472;28;20110;-63
2024/02/07 06:31:31;;;;;;;12.40;6.75;;;;;9.50;97686.00;;;;5053519;28;20135;-63
2024/02/07 06:33:58;;;;;;;12.77;7.35;;;;;9.50;97685.00;;;;5053097;28;20478;-63
2024/02/07 06:36:25;;;;;;;10.63;6.30;;;;;9.50;97682.00;;;;5053670;28;20045;-63
2024/02/07 06:38:51;;;;;;;12.65;7.03;;;;;9.50;97688.00;;;;5053297;28;20052;-63
2024/02/07 06:41:18;;;;;;;11.25;6.40;;;;;9.50;97682.00;;;;5053368;28;20044;-63
2024/02/07 06:43:44;;;;;;;9.60;6.68;;;;;9.50;97670.00;;;;5051444;28;20048;-63
2024/02/07 06:46:11;;;;;;;8.65;6.25;;;;;9.60;97687.00;;;;5053356;28;20060;-62
2024/02/07 06:48:37;;;;;;;12.80;6.50;;;;;9.60;97678.00;;;;5053021;28;20552;-63
2024/02/07 06:51:04;;;;;;;9.95;6.20;;;;;9.60;97672.00;;;;5053144;28;20037;-63
2024/02/07 06:53:31;;;;;;;8.27;6.00;;;;;9.60;97671.00;;;;5052507;28;20112;-63
2024/02/07 06:55:58;;;;;;;10.35;5.55;;;;;9.60;97678.00;;;;5053149;28;20045;-63
2024/02/07 06:58:29;;;;;;;11.88;6.72;;;;;9.60;97671.00;;;;5053065;28;20116;-63
2024/02/07 07:00:57;;;;;;;8.82;6.05;;;;;9.60;97666.00;;;;5053688;28;20659;-61
2024/02/07 07:03:27;;;;;;;9.23;6.22;;;;;9.60;97684.00;;;;5052302;28;20479;-63
2024/02/07 07:05:54;;;;;;;11.20;7.25;;;;;9.60;97676.00;;;;5052966;28;20553;-62
2024/02/07 07:08:21;;;;;;;11.23;6.35;;;;;9.60;97674.00;;;;5052715;28;20045;-63
2024/02/07 07:10:47;;;;;;;8.80;5.60;;;;;9.60;97671.00;;;;5052615;28;20127;-62
2024/02/07 07:13:14;;;;;;;8.63;6.32;;;;;9.60;97674.00;;;;5052304;28;20045;-64
2024/02/07 07:15:41;;;;;;;9.18;6.20;;;;;9.60;97667.00;;;;5052075;28;20048;-64
2024/02/07 07:18:07;;;;;;;9.93;6.00;;;;;9.60;97678.00;;;;5052609;28;20045;-64
2024/02/07 07:20:34;;;;;;;11.27;6.07;;;;;9.60;97670.00;;;;5052298;28;20053;-65
2024/02/07 07:23:01;;;;;;;14.57;7.05;;;;;9.60;97675.00;;;;5052406;28;20106;-65
2024/02/07 07:25:41;;;;;;;13.73;6.32;;;;;9.60;97680.00;;;;5050722;28;20052;-65
2024/02/07 07:28:08;;;;;;;9.30;5.90;;;;;9.60;97681.00;;;;5052461;28;20099;-63
2024/02/07 07:30:35;;;;;;;10.88;5.50;;;;;9.60;97665.00;;;;5052367;28;20437;-65
2024/02/07 07:33:02;;;;;;;17.83;6.05;;;;;9.60;97679.00;;;;5052285;28;20041;-63
2024/02/07 07:35:29;;;;;;;9.65;5.93;;;;;9.60;97677.00;;;;5051786;28;20051;-65
2024/02/07 07:38:03;;;;;;;10.23;5.90;;;;;9.60;97684.00;;;;5051160;28;20076;-65
2024/02/07 07:40:30;;;;;;;8.88;5.65;;;;;9.60;97682.00;;;;5052394;28;20382;-65
2024/02/07 07:42:57;;;;;;;8.60;5.43;;;;;9.70;97671.00;;;;5051966;28;20055;-62
2024/02/07 07:45:24;;;;;;;9.80;6.20;;;;;9.80;97675.00;;;;5051641;28;20471;-62
2024/02/07 07:47:50;;;;;;;11.95;5.60;;;;;9.80;97672.00;;;;5052282;28;20045;-62
2024/02/07 07:50:17;;;;;;;11.75;5.90;;;;;9.80;97668.00;;;;5052370;28;20414;-61
2024/02/07 07:52:43;;;;;;;9.20;5.55;;;;;9.80;97671.00;;;;5052102;28;20044;-60
2024/02/07 07:55:10;;;;;;;7.75;4.72;;;;;9.80;97665.00;;;;5051554;28;20075;-60
2024/02/07 07:57:37;;;;;;;10.70;5.60;;;;;9.80;97663.00;;;;5052281;28;20449;-61
2024/02/07 08:00:04;;;;;;;10.13;4.78;;;;;9.80;97662.00;;;;5050237;28;20128;-60
2024/02/07 08:02:37;;;;;;;6.40;4.72;;;;;9.80;97666.00;;;;5052177;28;20048;-62
2024/02/07 08:05:04;;;;;;;7.15;4.88;;;;;9.80;97670.00;;;;5051599;28;20484;-62
2024/02/07 08:07:30;;;;;;;10.52;5.28;;;;;9.80;97658.00;;;;5052077;28;20383;-62
2024/02/07 08:09:57;;;;;;;7.00;5.00;;;;;9.90;97665.00;;;;5052441;28;20067;-61
2024/02/07 08:12:23;;;;;;;7.70;4.97;;;;;9.90;97667.00;;;;5052397;28;20438;-61
2024/02/07 08:14:50;;;;;;;8.23;5.13;;;;;9.90;97665.00;;;;5051993;28;20045;-61
2024/02/07 08:17:18;;;;;;;9.95;5.18;;;;;10.00;97673.00;;;;5052680;28;20052;-62
2024/02/07 08:19:46;;;;;;;10.27;5.97;;;;;9.90;97665.00;;;;5052256;28;20079;-62
2024/02/07 08:22:13;;;;;;;6.93;4.88;;;;;10.00;97658.00;;;;5051917;28;20140;-62
2024/02/07 08:24:40;;;;;;;8.30;5.60;;;;;10.00;97644.00;;;;5051350;28;20045;-62
2024/02/07 08:27:06;;;;;;;8.23;5.15;;;;;10.10;97653.00;;;;5051646;28;20490;-61
2024/02/07 08:29:33;;;;;;;10.45;4.97;;;;;10.10;97656.00;;;;5052100;28;20056;-61
2024/02/07 08:32:00;;;;;;;5.63;4.90;;;;;10.10;97651.00;;;;5051821;28;20045;-62
2024/02/07 08:34:27;;;;;;;8.48;5.47;;;;;10.20;97645.00;;;;5051367;28;20045;-61
2024/02/07 08:36:54;;;;;;;6.40;4.35;;;;;10.20;97651.00;;;;5051780;28;20091;-61
2024/02/07 08:39:21;;;;;;;9.13;4.82;;;;;10.30;97651.00;;;;5052110;28;20402;-62
2024/02/07 08:41:47;;;;;;;7.53;4.70;;;;;10.30;97648.00;;;;5051479;28;20064;-62
2024/02/07 08:44:14;;;;;;;8.15;5.28;;;;;10.30;97653.00;;;;5051265;28;20049;-63
2024/02/07 08:46:43;;;;;;;6.82;4.90;;;;;10.40;97651.00;;;;5051919;28;20044;-62
2024/02/07 08:49:10;;;;;;;8.65;4.55;;;;;10.60;97649.00;;;;5051891;28;20115;-62
2024/02/07 08:51:37;;;;;;;8.20;5.32;;;;;10.60;97639.00;;;;5051597;28;20490;-61
2024/02/07 08:54:04;;;;;;;10.02;4.82;;;;;10.60;97651.00;;;;5050833;28;20041;-62
2024/02/07 08:56:30;;;;;;;8.50;4.90;;;;;10.70;97641.00;;;;5051238;28;20131;-60
2024/02/07 08:58:57;;;;;;;5.25;4.45;;;;;10.70;97634.00;;;;5051921;28;20049;-62
2024/02/07 09:01:23;;;;;;;7.30;5.22;;;;;10.60;97645.00;;;;5050500;28;20095;-62
2024/02/07 09:03:50;;;;;;;7.90;4.70;;;;;10.60;97641.00;;;;5050974;28;20085;-62
2024/02/07 09:06:17;;;;;;;7.50;4.55;;;;;10.50;97629.00;;;;5051584;28;20052;-62
2024/02/07 09:08:44;;;;;;;8.70;4.95;;;;;10.50;97617.00;;;;5051601;28;20048;-61
2024/02/07 09:11:11;;;;;;;8.48;4.75;;;;;10.50;97624.00;;;;5051662;28;20045;-60
2024/02/07 09:13:37;;;;;;;8.73;4.78;;;;;10.50;97624.00;;;;5054733;28;20056;-61
2024/02/07 09:16:04;;;;;;;11.95;4.80;;;;;10.60;97614.00;;;;5055116;28;20502;-62
2024/02/07 09:18:34;;;;;;;6.50;4.70;;;;;10.60;97615.00;;;;5055212;28;20055;-61
2024/02/07 09:21:00;;;;;;;6.45;4.00;;;;;10.70;97611.00;;;;5055545;28;20048;-61
2024/02/07 09:23:27;;;;;;;8.15;4.82;;;;;10.70;97622.00;;;;5054188;28;20045;-60
2024/02/07 09:25:54;;;;;;;7.22;4.20;;;;;10.70;97637.00;;;;5054899;28;20079;-60
2024/02/07 09:28:20;;;;;;;8.10;4.18;;;;;10.60;97614.00;;;;5055046;28;20071;-61
2024/02/07 09:30:47;;;;;;;6.90;3.95;;;;;10.70;97611.00;;;;5055244;28;20515;-60
2024/02/07 09:33:14;;;;;;;9.25;4.45;;;;;10.80;97625.00;;;;5054917;28;20045;-61
2024/02/07 09:35:41;;;;;;;6.90;4.00;;;;;10.80;97620.00;;;;5054413;28;20045;-61
2024/02/07 09:38:08;;;;;;;6.32;4.07;;;;;10.90;97611.00;;;;5054494;28;20052;-61
2024/02/07 09:40:34;;;;;;;7.47;3.70;;;;;10.90;97611.00;;;;5054657;28;20081;-63
2024/02/07 09:43:01;;;;;;;5.88;3.80;;;;;10.90;97631.00;;;;5054485;28;20083;-60
2024/02/07 09:45:32;;;;;;;6.53;3.72;;;;;10.90;97619.00;;;;5054122;28;20057;-61
2024/02/07 09:48:13;;;;;;;4.82;3.42;;;;;11.00;97623.00;;;;5055780;28;20049;-61
2024/02/07 09:50:40;;;;;;;4.65;3.35;;;;;11.00;97629.00;;;;5055470;28;20525;-60
2024/02/07 09:53:08;;;;;;;5.45;3.53;;;;;10.90;97614.00;;;;5054244;28;20460;-61
2024/02/07 09:55:37;;;;;;;6.20;3.60;;;;;10.90;97623.00;;;;5054816;28;20136;-61
2024/02/07 09:58:06;;;;;;;6.53;3.92;;;;;10.90;97616.00;;;;5053588;28;20045;-60
2024/02/07 10:00:33;;;;;;;6.13;3.80;;;;;10.90;97611.00;;;;5054930;28;20063;-60
2024/02/07 10:03:05;;;;;;;3.97;3.47;;;;;11.00;97610.00;;;;5054261;28;20041;-61
2024/02/07 10:05:34;;;;;;;10.60;4.13;;;;;11.00;97628.00;;;;5053860;28;20073;-60
2024/02/07 10:08:01;;;;;;;6.18;3.35;;;;;10.90;97615.00;;;;5054566;28;20094;-59
2024/02/07 10:10:28;;;;;;;5.35;3.22;;;;;10.90;97616.00;;;;5054322;28;20049;-61
2024/02/07 10:12:56;;;;;;;5.90;3.20;;;;;10.90;97617.00;;;;5054535;28;20045;-60
2024/02/07 10:15:23;;;;;;;6.00;3.85;;;;;10.90;97614.00;;;;5053711;28;20051;-60
2024/02/07 10:17:50;;;;;;;5.10;3.33;;;;;11.00;97614.00;;;;5054319;28;20497;-61
2024/02/07 10:20:18;;;;;;;6.47;3.50;;;;;11.10;97615.00;;;;5054026;28;20041;-59
2024/02/07 10:22:45;;;;;;;3.90;3.08;;;;;11.20;97609.00;;;;5053285;28;20048;-61
2024/02/07 10:25:14;;;;;;;5.93;3.50;;;;;11.30;97609.00;;;;5053303;28;20094;-62
2024/02/07 10:27:42;;;;;;;3.58;3.05;;;;;11.20;97608.00;;;;5053597;28;20556;-61
2024/02/07 10:30:09;;;;;;;5.32;3.40;;;;;11.30;97602.00;;;;5054088;28;20167;-62
2024/02/07 10:32:36;;;;;;;5.93;3.28;;;;;11.30;97607.00;;;;5052878;28;20072;-60
2024/02/07 10:35:04;;;;;;;5.95;3.50;;;;;11.40;97609.00;;;;5053877;28;20486;-61
2024/02/07 10:37:41;;;;;;;5.63;2.75;;;;;11.40;97594.00;;;;5053484;28;20052;-60
2024/02/07 10:40:12;;;;;;;3.78;3.20;;;;;11.40;97587.00;;;;5053674;28;20131;-61
2024/02/07 10:42:40;;;;;;;7.13;3.95;;;;;11.50;97585.00;;;;5053327;28;20045;-62
2024/02/07 10:45:09;;;;;;;4.28;3.10;;;;;11.60;97577.00;;;;5052853;28;20454;-62
2024/02/07 10:47:37;;;;;;;5.65;3.20;;;;;11.60;97584.00;;;;5053513;28;20410;-62
2024/02/07 10:50:08;;;;;;;5.88;3.65;;;;;11.40;97581.00;;;;5053230;28;20041;-61
2024/02/07 10:52:37;;;;;;;4.43;3.83;;;;;11.40;97585.00;;;;5053088;28;20501;-61
2024/02/07 10:55:10;;;;;;;6.00;4.22;;;;;11.40;97578.00;;;;5052379;28;20490;-61
2024/02/07 10:57:38;;;;;;;4.13;2.85;;;;;11.30;97574.00;;;;5053072;28;20048;-62
2024/02/07 11:00:06;;;;;;;4.30;3.25;;;;;11.30;97568.00;;;;5052967;28;20111;-61
2024/02/07 11:02:33;;;;;;;4.00;2.70;;;;;11.30;97562.00;;;;5053868;28;20077;-60
2024/02/07 11:05:00;;;;;;;10.75;4.55;;;;;11.30;97561.00;;;;5053512;28;20044;-60
2024/02/07 11:07:27;;;;;;;5.30;3.90;;;;;11.30;97554.00;;;;5054014;28;20075;-60
2024/02/07 11:09:54;;;;;;;4.93;3.45;;;;;11.40;97550.00;;;;5054586;28;20080;-60
2024/02/07 11:12:21;;;;;;;7.68;4.30;;;;;11.30;97536.00;;;;5053401;28;20131;-60
2024/02/07 11:14:50;;;;;;;4.43;3.17;;;;;11.30;97545.00;;;;5053224;28;20041;-58
2024/02/07 11:17:17;;;;;;;4.28;3.30;;;;;11.30;97544.00;;;;5053704;28;20114;-58
2024/02/07 11:19:45;;;;;;;3.42;2.83;;;;;11.30;97522.00;;;;5053711;28;20110;-60
2024/02/07 11:22:16;;;;;;;4.68;2.55;;;;;11.20;97535.00;;;;5053241;28;20075;-61
2024/02/07 11:24:45;;;;;;;3.70;2.30;;;;;11.10;97525.00;;;;5053180;28;20478;-60
2024/02/07 11:27:12;;;;;;;4.85;2.53;;;;;11.00;97515.00;;;;5053353;28;20110;-59
2024/02/07 11:29:42;;;;;;;4.38;2.60;;;;;11.00;97509.00;;;;5053702;28;20489;-59
2024/02/07 11:32:09;;;;;;;2.78;2.42;;;;;11.00;97515.00;;;;5053563;28;20049;-60
2024/02/07 11:34:39;;;;;;;3.88;2.58;;;;;11.00;97504.00;;;;5051592;28;20041;-59
2024/02/07 11:37:10;;;;;;;2.65;2.13;;;;;11.00;97511.00;;;;5052028;28;20044;-60
2024/02/07 11:39:42;;;;;;;2.20;2.00;;;;;11.00;97503.00;;;;5052760;28;20490;-60
2024/02/07 11:42:15;;;;;;;2.55;2.30;;;;;11.10;97500.00;;;;5053045;28;20124;-61
2024/02/07 11:44:52;;;;;;;3.53;2.53;;;;;11.10;97509.00;;;;5052461;28;20506;-61
2024/02/07 11:47:24;;;;;;;3.42;2.53;;;;;11.20;97492.00;;;;5052128;28;20102;-60
2024/02/07 11:49:59;;;;;;;3.67;2.80;;;;;11.20;97499.00;;;;5052107;28;20036;-59
2024/02/07 11:52:31;;;;;;;4.65;2.38;;;;;11.10;97492.00;;;;5052115;28;20599;-60
2024/02/07 11:55:06;;;;;;;4.35;2.85;;;;;11.00;97492.00;;;;5051547;28;20483;-59
2024/02/07 11:57:33;;;;;;;3.05;2.40;;;;;11.00;97499.00;;;;5052020;28;20071;-60
2024/02/07 12:00:01;;;;;;;3.13;2.35;;;;;10.90;97504.00;;;;5051969;28;20585;-61
2024/02/07 12:02:30;;;;;;;3.25;2.47;;;;;10.90;97502.00;;;;5052036;28;20060;-61
2024/02/07 12:04:57;;;;;;;2.95;2.55;;;;;10.80;97493.00;;;;5051792;28;20099;-61
2024/02/07 12:07:26;;;;;;;3.70;2.47;;;;;10.80;97493.00;;;;5050986;28;20055;-62
2024/02/07 12:09:54;;;;;;;4.82;2.72;;;;;10.90;97499.00;;;;5052516;28;20049;-62
2024/02/07 12:12:21;;;;;;;5.63;2.72;;;;;10.80;97489.00;;;;5052273;28;20041;-61
2024/02/07 12:14:48;;;;;;;4.78;2.95;;;;;10.80;97494.00;;;;5051658;28;20098;-62
2024/02/07 12:17:15;;;;;;;2.65;2.30;;;;;10.70;97504.00;;;;5053003;28;20127;-66
2024/02/07 12:19:44;;;;;;;2.95;2.42;;;;;10.70;97493.00;;;;5052857;28;20098;-61
2024/02/07 12:22:16;;;;;;;4.07;2.83;;;;;10.60;97493.00;;;;5052261;28;20512;-60
2024/02/07 12:24:44;;;;;;;3.03;2.50;;;;;10.60;97477.00;;;;5051812;28;20120;-61
2024/02/07 12:27:18;;;;;;;4.85;3.38;;;;;10.50;97480.00;;;;5052126;28;20042;-60
2024/02/07 12:29:48;;;;;;;3.53;2.50;;;;;10.60;97480.00;;;;5052682;28;20116;-60
2024/02/07 12:32:15;;;;;;;4.70;3.10;;;;;10.60;97484.00;;;;5052654;28;20049;-60
2024/02/07 12:34:41;;;;;;;4.45;2.80;;;;;10.60;97475.00;;;;5051315;28;20503;-59
2024/02/07 12:37:09;;;;;;;2.97;2.63;;;;;10.70;97466.00;;;;5051847;28;20090;-60
2024/02/07 12:39:36;;;;;;;4.65;2.67;;;;;10.70;97466.00;;;;5051306;28;20041;-60
2024/02/07 12:42:05;;;;;;;4.35;2.97;;;;;10.70;97474.00;;;;5052212;28;20045;-61
2024/02/07 12:44:32;;;;;;;3.72;2.83;;;;;10.70;97450.00;;;;5050083;28;20049;-61
2024/02/07 12:46:58;;;;;;;5.88;3.28;;;;;10.80;97465.00;;;;5054226;28;20047;-61
2024/02/07 12:49:25;;;;;;;3.80;2.40;;;;;10.80;97455.00;;;;5055429;28;20045;-62
2024/02/07 12:51:52;;;;;;;4.63;3.03;;;;;10.70;97444.00;;;;5055154;28;20449;-61
2024/02/07 12:54:19;;;;;;;5.65;3.05;;;;;10.80;97458.00;;;;5054678;28;20523;-61
2024/02/07 12:56:53;;;;;;;3.97;2.60;;;;;10.80;97459.00;;;;5055268;28;20049;-61
2024/02/07 12:59:33;;;;;;;5.32;3.08;;;;;10.80;97444.00;;;;5055280;28;20464;-61
2024/02/07 13:02:07;;;;;;;5.50;2.78;;;;;10.80;97456.00;;;;5055400;28;20052;-61
2024/02/07 13:04:34;;;;;;;5.55;2.47;;;;;10.80;97454.00;;;;5054759;28;20037;-61
2024/02/07 13:07:05;;;;;;;3.03;2.50;;;;;10.80;97455.00;;;;5053592;28;20053;-62
2024/02/07 13:09:31;;;;;;;5.93;3.00;;;;;10.80;97438.00;;;;5053877;28;20174;-61
2024/02/07 13:11:58;;;;;;;5.90;2.90;;;;;10.80;97434.00;;;;5054869;28;20452;-61
2024/02/07 13:14:26;;;;;;;4.35;3.00;;;;;10.80;97437.00;;;;5054209;28;20052;-61
2024/02/07 13:16:53;;;;;;;4.75;2.50;;;;;10.80;97435.00;;;;5054843;28;20128;-62
2024/02/07 13:19:20;;;;;;;4.30;2.70;;;;;10.90;97443.00;;;;5054957;28;20415;-60
2024/02/07 13:21:47;;;;;;;3.70;2.90;;;;;10.80;97420.00;;;;5054638;28;20114;-63
2024/02/07 13:24:26;;;;;;;3.00;2.33;;;;;10.90;97418.00;;;;5054139;28;20045;-62
2024/02/07 13:26:52;;;;;;;5.38;3.10;;;;;10.80;97422.00;;;;5054561;28;20417;-62
2024/02/07 13:29:20;;;;;;;3.42;2.78;;;;;10.90;97431.00;;;;5054312;28;20040;-62